Time;durP1;ratioP1;P1;durP2;ratioP2;P2;SDS_P1;SDS_P2;PMS_P1;PMS_P2;Temp;Humidity;BMP_temperature;BMP_pressure;BME280_temperature;BME280_humidity;BME280_pressure;Samples;Min_cycle;Max_cycle;Signal;HPM_P1;HPM_P2
2023/01/24 07:35:17;;;;;;;0.90;0.90;;;3.80;99.90;5.80;103521.00;;;;5079474;22;20694;-69
2023/01/24 07:37:48;;;;;;;3.63;3.40;;;3.80;99.90;5.40;103538.00;;;;5068818;28;20201;-69
2023/01/24 07:40:18;;;;;;;1.20;1.20;;;3.90;99.90;5.20;103526.00;;;;5055403;28;20671;-69
2023/01/24 07:42:46;;;;;;;1.53;1.43;;;3.80;99.90;5.50;103542.00;;;;5049953;28;20198;-69
2023/01/24 07:45:15;;;;;;;4.63;1.87;;;3.80;99.90;5.80;103544.00;;;;5062342;28;20193;-69
2023/01/24 07:47:47;;;;;;;0.73;0.73;;;3.80;99.90;5.70;103540.00;;;;5058329;28;20649;-69
2023/01/24 07:50:13;;;;;;;1.90;1.80;;;3.90;99.90;6.40;103542.00;;;;5066129;28;20711;-69
2023/01/24 07:52:41;;;;;;;0.50;0.50;;;4.10;99.90;6.10;103552.00;;;;5057645;28;20627;-70
2023/01/24 07:55:10;;;;;;;3.10;2.90;;;3.90;99.90;6.10;103523.00;;;;5050932;28;20197;-70
2023/01/24 07:57:41;;;;;;;1.23;1.13;;;4.10;99.90;4.70;103495.00;;;;5045700;28;20193;-70
2023/01/24 08:00:14;;;;;;;2.97;2.67;;;3.70;99.90;6.10;103501.00;;;;5044536;28;20281;-69
2023/01/24 08:02:50;;;;;;;2.00;1.80;;;3.80;99.90;6.70;103572.00;;;;5056349;28;20197;-68
2023/01/24 08:05:18;;;;;;;1.87;1.77;;;4.20;99.90;6.80;103576.00;;;;5057073;28;20201;-68
2023/01/24 08:07:50;;;;;;;3.97;3.60;;;4.50;99.90;6.40;103571.00;;;;5054176;28;20644;-67
2023/01/24 08:10:24;;;;;;;4.97;3.50;;;4.30;99.90;6.10;103586.00;;;;5051538;28;20179;-67
2023/01/24 08:12:53;;;;;;;1.20;1.20;;;4.30;99.90;6.30;103577.00;;;;5031288;28;20767;-67
2023/01/24 08:15:28;;;;;;;0.87;0.87;;;4.30;99.90;5.50;103575.00;;;;5056088;28;20725;-69
2023/01/24 08:18:03;;;;;;;4.13;1.47;;;4.00;99.90;6.00;103574.00;;;;5040051;28;20683;-69
2023/01/24 08:20:34;;;;;;;4.73;3.33;;;4.00;99.90;6.40;103580.00;;;;5055958;28;20200;-67
2023/01/24 08:23:11;;;;;;;3.00;2.77;;;4.10;99.90;5.90;103587.00;;;;5045673;28;20228;-69
2023/01/24 08:25:44;;;;;;;2.23;2.03;;;4.00;99.90;6.20;103576.00;;;;5031825;28;20224;-70
2023/01/24 08:28:33;;;;;;;5.80;5.10;;;4.00;99.90;6.10;103581.00;;;;5046804;28;20189;-69
2023/01/24 08:31:25;;;;;;;2.10;1.33;;;4.10;99.90;5.30;103528.00;;;;5052681;28;20256;-76
2023/01/24 08:34:15;;;;;;;3.17;2.53;;;3.90;99.90;6.00;103582.00;;;;5061361;28;20292;-68
2023/01/24 08:36:41;;;;;;;1.43;1.10;;;4.00;99.90;5.60;103581.00;;;;5037322;28;20245;-66
2023/01/24 08:39:12;;;;;;;6.10;5.10;;;3.90;99.90;3.50;103568.00;;;;5026969;28;20240;-66
2023/01/24 08:41:47;;;;;;;3.57;3.13;;;3.40;99.90;4.20;103556.00;;;;5056680;28;20197;-66
2023/01/24 08:44:15;;;;;;;5.77;4.50;;;3.10;99.90;3.70;103554.00;;;;5067530;28;20200;-66
2023/01/24 08:46:45;;;;;;;8.10;4.90;;;3.10;99.90;3.80;103559.00;;;;5069169;28;20194;-66
2023/01/24 08:49:11;;;;;;;2.83;2.07;;;3.00;99.90;3.90;103557.00;;;;5055794;28;20189;-66
2023/01/24 08:51:42;;;;;;;4.07;3.70;;;3.00;99.90;3.90;103512.00;;;;5048940;28;20198;-66
2023/01/24 08:54:08;;;;;;;3.17;2.07;;;3.00;99.90;5.20;103558.00;;;;5043408;28;20706;-66
2023/01/24 08:56:34;;;;;;;4.03;3.77;;;3.30;99.90;4.70;103566.00;;;;5080276;28;20186;-66
2023/01/24 08:59:00;;;;;;;5.23;4.30;;;3.40;99.90;5.10;103569.00;;;;5048694;28;20276;-66
2023/01/24 09:01:31;;;;;;;8.33;5.03;;;3.40;99.90;5.10;103588.00;;;;5044327;28;20589;-67
2023/01/24 09:04:02;;;;;;;4.43;4.03;;;3.60;99.90;4.50;103572.00;;;;5035340;28;20236;-67
2023/01/24 09:06:31;;;;;;;3.33;3.03;;;3.40;99.90;4.20;103559.00;;;;5067007;28;20240;-66
2023/01/24 09:08:57;;;;;;;3.47;2.30;;;3.20;99.90;4.50;103568.00;;;;5055740;28;20239;-66
2023/01/24 09:11:30;;;;;;;3.47;3.17;;;3.20;99.90;4.50;103555.00;;;;5039370;28;20193;-66
2023/01/24 09:13:57;;;;;;;6.93;5.80;;;3.10;99.90;4.60;103567.00;;;;5056385;28;20225;-66
2023/01/24 09:16:28;;;;;;;15.57;6.47;;;3.30;99.90;3.70;103567.00;;;;5052883;28;20190;-67
2023/01/24 09:18:55;;;;;;;1.23;1.13;;;3.10;99.90;4.80;103564.00;;;;5055507;28;20190;-70
2023/01/24 09:21:29;;;;;;;0.63;0.63;;;3.20;99.90;5.30;103578.00;;;;5052115;28;20190;-70
2023/01/24 09:24:16;;;;;;;1.50;1.40;;;3.40;99.90;5.20;103581.00;;;;5047880;28;20181;-70
2023/01/24 09:26:46;;;;;;;3.07;1.87;;;3.60;99.90;5.60;103594.00;;;;5043924;28;20198;-70
2023/01/24 09:29:20;;;;;;;2.97;2.73;;;3.60;99.90;5.60;103596.00;;;;5063444;28;20189;-70
2023/01/24 09:31:49;;;;;;;5.77;5.10;;;3.70;99.90;5.70;103605.00;;;;5046560;28;20196;-70
2023/01/24 09:34:21;;;;;;;7.67;6.03;;;3.80;99.90;5.20;103596.00;;;;5043140;28;20203;-70
2023/01/24 09:36:50;;;;;;;2.10;1.97;;;3.80;99.90;5.50;103578.00;;;;5035724;28;20205;-70
2023/01/24 09:39:29;;;;;;;6.30;4.30;;;3.80;99.90;4.80;103557.00;;;;5039164;28;20200;-69
2023/01/24 09:42:30;;;;;;;4.07;3.73;;;3.70;99.90;5.10;103605.00;;;;5036967;28;20655;-70
2023/01/24 09:45:12;;;;;;;4.43;3.70;;;3.60;99.90;5.50;103596.00;;;;5056266;28;20208;-69
2023/01/24 09:47:56;;;;;;;0.97;0.87;;;3.60;99.90;6.20;103579.00;;;;5048855;28;20186;-69
2023/01/24 09:50:44;;;;;;;3.80;3.23;;;4.00;99.90;5.00;103616.00;;;;5048183;28;20189;-69
2023/01/24 09:53:43;;;;;;;6.77;6.27;;;4.00;99.90;5.10;103592.00;;;;5053973;28;20201;-70
2023/01/24 09:56:44;;;;;;;1.47;1.47;;;3.70;99.90;6.10;103609.00;;;;5053533;28;20268;-70
2023/01/24 09:59:36;;;;;;;1.40;1.30;;;4.00;99.90;6.20;103627.00;;;;5050237;28;20195;-69
2023/01/24 10:02:18;;;;;;;1.37;1.37;;;4.20;99.90;5.70;103618.00;;;;5046671;28;20201;-70
2023/01/24 10:04:59;;;;;;;2.20;1.23;;;4.10;99.90;5.20;103623.00;;;;5043199;28;20685;-69
2023/01/24 10:08:14;;;;;;;5.63;3.60;;;4.00;99.90;4.40;103571.00;;;;5030211;28;20222;-69
2023/01/24 10:11:14;;;;;;;10.53;5.73;;;3.60;99.90;3.90;103588.00;;;;5031833;28;20212;-69
2023/01/24 10:14:01;;;;;;;4.33;2.83;;;3.20;99.90;4.90;103568.00;;;;5061744;28;20201;-69
2023/01/24 10:16:48;;;;;;;4.30;3.03;;;3.30;99.90;4.50;103599.00;;;;5051460;28;20653;-69
2023/01/24 10:20:06;;;;;;;0.93;0.93;;;3.40;99.90;5.80;103609.00;;;;5061466;28;20189;-69
2023/01/24 10:34:00;;;;;;;2.67;2.43;;;2.80;99.90;3.50;103562.00;;;;5103859;27;20548;-69
2023/01/24 10:36:53;;;;;;;5.10;4.63;;;3.00;99.90;4.90;103573.00;;;;5056115;28;20255;-69
2023/01/24 10:39:43;;;;;;;2.67;2.47;;;3.40;99.90;5.60;103581.00;;;;5065851;28;20198;-69
2023/01/24 10:42:31;;;;;;;3.40;2.27;;;3.60;99.90;4.70;103601.00;;;;5074801;28;20183;-69
2023/01/24 10:45:40;;;;;;;5.67;5.13;;;3.70;99.90;4.30;103600.00;;;;5053282;28;20175;-69
2023/01/24 10:48:53;;;;;;;9.57;7.67;;;3.50;99.90;5.00;103596.00;;;;5066046;28;20537;-68
2023/01/24 10:51:26;;;;;;;3.97;3.67;;;3.40;99.90;4.10;103594.00;;;;5065856;28;20698;-69
2023/01/24 10:54:13;;;;;;;1.97;1.83;;;3.20;99.90;4.10;103585.00;;;;5082020;28;20180;-69
2023/01/24 10:57:05;;;;;;;3.87;3.53;;;3.10;99.90;4.60;103596.00;;;;5082564;28;20220;-69
2023/01/24 11:00:01;;;;;;;8.73;6.77;;;3.20;99.90;4.20;103595.00;;;;5079726;28;20583;-69
2023/01/24 11:02:37;;;;;;;5.90;4.97;;;3.30;99.90;4.20;103583.00;;;;5052862;28;20190;-69
2023/01/24 11:05:09;;;;;;;13.10;9.50;;;3.10;99.90;3.60;103572.00;;;;5059742;28;20640;-69
2023/01/24 11:07:55;;;;;;;6.37;2.87;;;3.20;99.90;5.40;103582.00;;;;5077537;28;20188;-69
2023/01/24 11:10:35;;;;;;;4.63;2.07;;;3.40;99.90;4.80;103591.00;;;;5055125;28;20230;-69
2023/01/24 11:13:35;;;;;;;4.17;3.63;;;3.60;99.90;5.60;103597.00;;;;5066566;28;20321;-69
2023/01/24 11:16:46;;;;;;;7.90;7.23;;;3.60;99.90;5.90;103606.00;;;;5069364;28;20191;-69
2023/01/24 11:19:43;;;;;;;4.50;3.27;;;4.00;99.90;5.10;103598.00;;;;5081009;28;20223;-69
2023/01/24 11:22:44;;;;;;;11.33;8.07;;;3.70;99.90;4.80;103600.00;;;;5068137;28;20182;-72
2023/01/24 11:25:23;;;;;;;17.83;5.13;;;3.90;99.90;5.10;103583.00;;;;5061835;28;20497;-69
2023/01/24 11:28:06;;;;;;;3.93;3.63;;;3.70;99.90;5.80;103600.00;;;;5068419;28;20196;-69
2023/01/24 11:31:11;;;;;;;6.77;5.07;;;3.80;99.90;5.30;103613.00;;;;5048996;28;20217;-69
2023/01/24 11:33:54;;;;;;;5.03;3.53;;;4.00;99.90;4.90;103553.00;;;;5066169;28;20680;-69
2023/01/24 11:36:32;;;;;;;1.40;1.40;;;3.70;99.90;5.90;103592.00;;;;5061598;28;20428;-68
2023/01/24 11:39:16;;;;;;;1.43;1.23;;;3.80;99.90;6.70;103587.00;;;;5055989;28;20184;-68
2023/01/24 11:42:30;;;;;;;5.20;4.37;;;4.20;99.90;5.90;103609.00;;;;5077139;28;20238;-68
2023/01/24 11:45:51;;;;;;;6.50;5.43;;;4.30;99.90;5.00;103587.00;;;;5055696;28;20227;-68
2023/01/24 11:48:33;;;;;;;6.90;4.90;;;3.90;99.90;5.60;103586.00;;;;5040290;28;20189;-68
2023/01/24 11:51:29;;;;;;;11.53;8.13;;;3.90;99.90;5.00;103586.00;;;;5027661;28;20179;-68
2023/01/24 11:54:18;;;;;;;4.10;3.80;;;3.80;99.90;5.50;103595.00;;;;5056585;28;20271;-69
2023/01/24 11:57:03;;;;;;;0.90;0.90;;;3.90;99.90;5.90;103588.00;;;;5043860;28;20178;-69
2023/01/24 12:00:17;;;;;;;0.97;0.97;;;4.00;99.90;5.80;103578.00;;;;5057981;28;20186;-69
2023/01/24 12:03:13;;;;;;;7.50;2.93;;;3.90;99.90;5.10;103568.00;;;;5037862;28;20211;-69
2023/01/24 12:06:17;;;;;;;3.67;3.37;;;3.80;99.90;5.70;103568.00;;;;5042223;28;20186;-68
2023/01/24 12:09:24;;;;;;;5.00;4.47;;;3.90;99.90;5.90;103571.00;;;;5029296;28;20271;-69
2023/01/24 12:12:13;;;;;;;0.73;0.73;;;4.00;99.90;6.80;103548.00;;;;5047596;28;20705;-69
2023/01/24 12:15:03;;;;;;;1.03;1.03;;;4.50;99.90;6.40;103577.00;;;;5059149;28;20264;-69
2023/01/24 12:17:49;;;;;;;3.13;2.90;;;4.40;99.90;5.40;103555.00;;;;5044853;28;20278;-68
2023/01/24 12:20:37;;;;;;;8.57;5.80;;;4.20;99.90;6.20;103554.00;;;;5049579;28;20202;-68
2023/01/24 12:23:27;;;;;;;1.80;1.73;;;4.10;99.90;6.40;103543.00;;;;5045004;28;20223;-69
2023/01/24 12:26:03;;;;;;;2.67;2.50;;;4.10;99.90;6.30;103547.00;;;;5062279;28;20192;-69
2023/01/24 12:28:43;;;;;;;1.47;1.37;;;4.20;99.90;6.90;103532.00;;;;5042607;28;20658;-69
2023/01/24 12:31:52;;;;;;;4.03;2.60;;;4.40;99.90;6.40;103557.00;;;;5040862;28;20189;-69
2023/01/24 12:34:57;;;;;;;2.10;2.00;;;4.50;99.90;6.00;103522.00;;;;5051974;28;20203;-68
2023/01/24 12:38:13;;;;;;;1.57;1.57;;;4.30;99.90;5.50;103498.00;;;;5050557;28;20201;-69
2023/01/24 12:41:02;;;;;;;2.43;2.23;;;4.10;99.90;6.20;103551.00;;;;5059838;28;20234;-69
2023/01/24 12:43:54;;;;;;;3.33;2.37;;;4.20;99.90;6.10;103552.00;;;;5056247;28;20246;-69
2023/01/24 12:46:46;;;;;;;2.97;2.40;;;4.30;99.90;5.80;103542.00;;;;5056370;28;20187;-69
2023/01/24 12:50:00;;;;;;;3.13;2.23;;;4.20;99.90;6.70;103541.00;;;;5070247;28;20625;-68
2023/01/24 12:53:03;;;;;;;5.10;4.70;;;4.20;99.90;5.50;103537.00;;;;5069157;28;20666;-68
2023/01/24 12:56:21;;;;;;;6.57;3.53;;;4.10;99.90;6.40;103532.00;;;;5040898;28;20221;-68
2023/01/24 12:59:08;;;;;;;2.10;0.87;;;4.30;99.90;7.00;103491.00;;;;5036370;28;20292;-68
2023/01/24 13:02:06;;;;;;;0.57;0.57;;;4.30;99.90;7.10;103542.00;;;;5059071;28;20201;-68
2023/01/24 13:05:11;;;;;;;0.60;0.60;;;4.50;99.90;7.00;103540.00;;;;5052854;28;20180;-68
2023/01/24 13:08:49;;;;;;;3.40;2.90;;;4.60;99.90;6.20;103536.00;;;;5050943;28;20637;-68
2023/01/24 13:11:29;;;;;;;0.80;0.80;;;4.70;99.90;6.20;103527.00;;;;5012851;28;20212;-68
2023/01/24 13:14:17;;;;;;;8.63;5.80;;;4.40;99.90;5.90;103519.00;;;;4996179;28;20214;-68
2023/01/24 13:17:24;;;;;;;2.03;1.83;;;4.20;99.90;4.80;103493.00;;;;5017505;28;20194;-68
2023/01/24 13:19:53;;;;;;;1.53;1.43;;;3.90;99.90;5.70;103516.00;;;;5029026;28;20196;-68
2023/01/24 13:22:33;;;;;;;0.87;0.87;;;3.80;99.90;5.10;103503.00;;;;5029397;28;20257;-68
2023/01/24 13:25:25;;;;;;;2.20;1.63;;;3.70;99.90;6.60;103513.00;;;;5024029;28;20716;-67
2023/01/24 13:27:58;;;;;;;2.23;2.13;;;4.00;99.90;6.50;103531.00;;;;5064665;28;20225;-65
2023/01/24 13:31:25;;;;;;;2.40;2.20;;;4.30;99.90;5.40;103530.00;;;;5049129;28;20270;-69
2023/01/24 13:34:02;;;;;;;0.87;0.87;;;4.20;99.90;5.90;103522.00;;;;5043100;28;20195;-69
2023/01/24 13:37:18;;;;;;;3.53;3.23;;;4.10;99.90;5.80;103513.00;;;;5061531;28;20198;-69
2023/01/24 13:40:09;;;;;;;1.23;1.20;;;4.10;99.90;6.10;103463.00;;;;5040777;28;20182;-68
2023/01/24 13:42:39;;;;;;;4.40;4.07;;;4.00;99.90;5.00;103449.00;;;;5041243;28;20200;-68
2023/01/24 13:45:26;;;;;;;10.17;7.07;;;3.70;99.90;5.50;103505.00;;;;5029618;28;20184;-68
2023/01/24 13:47:54;;;;;;;2.63;2.40;;;3.70;99.90;4.60;103465.00;;;;5056710;28;20291;-68
2023/01/24 13:50:22;;;;;;;7.90;5.33;;;3.60;99.90;3.70;103479.00;;;;5060739;28;20642;-68
2023/01/24 13:53:00;;;;;;;1.53;1.43;;;3.20;99.90;5.00;103496.00;;;;5041307;28;20328;-68
2023/01/24 13:55:29;;;;;;;8.67;5.20;;;3.40;99.90;4.60;103469.00;;;;5051747;28;20568;-68
2023/01/24 13:58:07;;;;;;;1.83;1.63;;;3.50;99.90;5.30;103511.00;;;;5066875;28;20554;-68
2023/01/24 14:00:56;;;;;;;1.87;1.77;;;3.70;99.90;5.60;103465.00;;;;5045240;28;20243;-68
2023/01/24 14:03:59;;;;;;;1.07;1.07;;;3.70;99.90;4.70;103492.00;;;;5054909;28;20729;-68
2023/01/24 14:06:43;;;;;;;0.23;0.23;;;3.60;99.90;6.30;103508.00;;;;5063625;28;20201;-68
2023/01/24 14:09:28;;;;;;;1.67;1.57;;;3.80;99.90;6.00;103513.00;;;;5052784;28;20272;-68
2023/01/24 14:12:04;;;;;;;1.33;1.33;;;4.20;99.90;5.50;103504.00;;;;5062146;28;20205;-68
2023/01/24 14:14:39;;;;;;;2.60;2.23;;;3.90;99.90;5.60;103464.00;;;;5070211;28;20189;-68
2023/01/24 14:17:27;;;;;;;2.43;2.33;;;4.00;99.90;4.80;103488.00;;;;5025689;28;20185;-68
2023/01/24 14:19:59;;;;;;;2.13;1.93;;;3.50;99.90;4.80;103444.00;;;;5056937;28;20182;-68
2023/01/24 14:22:40;;;;;;;0.50;0.50;;;3.50;99.90;5.70;103455.00;;;;5039935;28;20657;-68
2023/01/24 14:25:37;;;;;;;1.33;0.87;;;3.70;99.90;6.70;103488.00;;;;5051766;28;20243;-69
2023/01/24 14:28:19;;;;;;;0.67;0.67;;;4.20;99.90;5.50;103514.00;;;;5044826;28;20186;-68
2023/01/24 14:31:22;;;;;;;0.30;0.30;;;4.10;99.90;6.30;103480.00;;;;5050459;28;20181;-68
2023/01/24 14:34:08;;;;;;;7.73;6.20;;;4.00;99.90;4.40;103458.00;;;;5063508;28;20200;-69
2023/01/24 14:36:38;;;;;;;16.20;8.20;;;3.80;99.90;3.50;103482.00;;;;5043203;28;20219;-68
2023/01/24 14:39:22;;;;;;;7.23;5.83;;;3.20;99.90;3.60;103445.00;;;;5054677;28;20180;-68
2023/01/24 14:42:33;;;;;;;9.23;5.10;;;3.10;99.90;4.40;103488.00;;;;5054564;28;20267;-69
2023/01/24 14:44:59;;;;;;;5.20;3.93;;;3.20;99.90;4.30;103451.00;;;;5048396;28;20214;-68
2023/01/24 14:47:30;;;;;;;1.63;1.13;;;3.20;99.90;5.40;103494.00;;;;5051765;28;20593;-69
2023/01/24 14:49:59;;;;;;;3.90;3.60;;;3.40;99.90;6.20;103505.00;;;;5035371;28;20638;-69
2023/01/24 14:52:27;;;;;;;0.87;0.83;;;3.90;99.90;5.50;103515.00;;;;5059233;28;20293;-68
2023/01/24 14:54:58;;;;;;;1.67;1.17;;;4.00;99.90;6.70;103500.00;;;;5050644;28;20199;-69
2023/01/24 14:57:32;;;;;;;3.80;1.90;;;4.20;99.90;5.80;103508.00;;;;5060361;28;20226;-68
2023/01/24 15:00:11;;;;;;;5.40;1.33;;;3.90;99.90;6.90;103517.00;;;;5061631;28;20711;-68
2023/01/24 15:03:01;;;;;;;3.20;1.83;;;4.30;99.90;5.70;103519.00;;;;5061223;28;20278;-68
2023/01/24 15:05:37;;;;;;;7.30;3.40;;;4.20;99.90;5.80;103518.00;;;;5046507;28;20182;-68
2023/01/24 15:08:16;;;;;;;6.87;3.77;;;3.90;99.90;5.10;103522.00;;;;5033702;28;20257;-68
2023/01/24 15:10:43;;;;;;;4.17;3.17;;;3.70;99.90;5.70;103511.00;;;;5036490;28;20184;-68
2023/01/24 15:13:24;;;;;;;6.23;4.83;;;3.60;99.90;5.50;103528.00;;;;5039452;28;20190;-68
2023/01/24 15:15:50;;;;;;;1.10;1.10;;;3.80;99.90;4.80;103511.00;;;;5035312;28;20543;-68
2023/01/24 15:18:39;;;;;;;1.57;1.57;;;3.60;99.90;5.20;103485.00;;;;5052668;28;20647;-69
2023/01/24 15:21:18;;;;;;;2.10;2.00;;;3.50;99.90;6.10;103522.00;;;;5042419;28;20183;-68
2023/01/24 15:23:51;;;;;;;8.83;6.90;;;3.60;99.90;4.20;103513.00;;;;5052125;28;20308;-69
2023/01/24 15:26:27;;;;;;;2.50;1.77;;;3.50;99.90;4.40;103491.00;;;;5069057;28;20612;-68
2023/01/24 15:28:53;;;;;;;5.23;3.30;;;3.10;99.90;5.60;103507.00;;;;5043282;28;20188;-68
2023/01/24 15:31:30;;;;;;;3.83;2.53;;;3.40;99.90;5.60;103496.00;;;;5046743;28;20187;-68
2023/01/24 15:34:20;;;;;;;1.33;1.33;;;3.60;99.90;5.50;103525.00;;;;5042605;28;20274;-68
2023/01/24 15:36:57;;;;;;;6.33;3.07;;;3.60;99.90;6.10;103537.00;;;;5043985;28;20209;-68
2023/01/24 15:39:51;;;;;;;3.23;2.97;;;3.80;99.90;6.10;103545.00;;;;5050147;28;20227;-68
2023/01/24 15:45:25;;;;;;;5.63;4.87;;;3.90;99.90;5.50;103526.00;;;;5059697;28;20189;-68
2023/01/24 15:48:20;;;;;;;3.13;2.93;;;3.80;99.90;5.40;103517.00;;;;5056684;28;20190;-68
2023/01/24 15:51:09;;;;;;;0.33;0.33;;;3.60;99.90;5.80;103515.00;;;;5050796;28;20261;-68
2023/01/24 15:53:49;;;;;;;0.83;0.83;;;3.70;99.90;5.30;103513.00;;;;5040504;28;20209;-67
2023/01/24 15:56:21;;;;;;;1.87;1.77;;;3.50;99.90;6.30;103530.00;;;;5051861;28;20182;-69
2023/01/24 15:58:53;;;;;;;0.77;0.77;;;3.90;99.90;6.50;103486.00;;;;5044116;28;20250;-69
2023/01/24 16:01:29;;;;;;;2.73;2.63;;;4.00;99.90;6.00;103534.00;;;;5063111;28;20194;-68
2023/01/24 16:04:08;;;;;;;7.07;3.67;;;4.00;99.90;4.70;103513.00;;;;5064821;28;20589;-69
2023/01/24 16:06:51;;;;;;;0.90;0.90;;;3.70;99.90;6.10;103488.00;;;;5042248;28;20189;-69
2023/01/24 16:09:17;;;;;;;2.17;2.07;;;3.80;99.90;6.10;103538.00;;;;5048419;28;20185;-69
2023/01/24 16:11:48;;;;;;;2.57;2.07;;;3.90;99.90;5.70;103528.00;;;;5078380;28;20198;-69
2023/01/24 16:14:39;;;;;;;1.43;1.33;;;3.80;99.90;7.00;103554.00;;;;5064998;28;20189;-69
2023/01/24 16:17:25;;;;;;;1.90;1.80;;;4.20;99.90;5.90;103550.00;;;;5056645;28;20213;-69
2023/01/24 16:19:56;;;;;;;0.70;0.70;;;4.30;99.90;6.50;103528.00;;;;5046719;28;20661;-69
2023/01/24 16:22:43;;;;;;;3.80;3.60;;;4.20;99.90;4.70;103493.00;;;;5061244;28;20210;-69
2023/01/24 16:25:16;;;;;;;7.50;5.50;;;3.60;99.90;4.30;103508.00;;;;5054187;28;20195;-69
2023/01/24 16:27:46;;;;;;;4.23;2.57;;;3.20;99.90;5.90;103541.00;;;;5036266;28;20186;-68
2023/01/24 16:30:33;;;;;;;1.67;1.57;;;3.50;99.90;5.70;103530.00;;;;5048463;28;20183;-69
2023/01/24 16:33:07;;;;;;;5.43;4.10;;;3.70;99.90;4.30;103512.00;;;;5043592;28;20328;-68
2023/01/24 16:35:38;;;;;;;2.70;2.50;;;3.40;99.90;4.30;103509.00;;;;5053053;28;20185;-67
2023/01/24 16:38:07;;;;;;;5.30;3.93;;;3.10;99.90;4.40;103497.00;;;;5036026;28;20178;-68
2023/01/24 16:40:41;;;;;;;1.20;1.20;;;3.20;99.90;5.00;103513.00;;;;5053731;28;20174;-68
2023/01/24 16:43:21;;;;;;;12.90;5.80;;;3.30;99.90;3.80;103514.00;;;;5054213;28;20185;-68
2023/01/24 16:46:17;;;;;;;2.77;2.20;;;3.10;99.90;5.30;103502.00;;;;5047809;28;20186;-67
2023/01/24 16:49:01;;;;;;;0.70;0.70;;;3.20;99.90;5.40;103491.00;;;;5048358;28;20279;-68
2023/01/24 16:51:47;;;;;;;0.57;0.57;;;3.50;99.90;6.60;103532.00;;;;5040885;28;20185;-68
2023/01/24 16:54:23;;;;;;;2.60;1.97;;;3.80;99.90;6.30;103544.00;;;;5059586;28;20198;-68
2023/01/24 16:57:10;;;;;;;6.23;4.63;;;4.10;99.90;6.40;103531.00;;;;5054240;28;20247;-68
2023/01/24 16:59:59;;;;;;;1.03;1.03;;;3.90;99.90;6.20;103544.00;;;;5046985;28;20234;-68
2023/01/24 17:02:35;;;;;;;2.20;2.10;;;3.90;99.90;5.40;103535.00;;;;5055422;28;20197;-68
2023/01/24 17:05:46;;;;;;;0.60;0.60;;;3.70;99.90;5.70;103548.00;;;;5065972;28;20651;-68
2023/01/24 17:08:18;;;;;;;12.13;7.63;;;3.70;99.90;5.00;103542.00;;;;5047488;28;20194;-68
2023/01/24 17:11:39;;;;;;;3.03;2.67;;;3.60;99.90;5.10;103533.00;;;;5022730;28;20174;-68
2023/01/24 17:15:02;;;;;;;2.63;2.42;;;3.50;99.90;5.40;103536.00;;;;5029984;28;20507;-68
2023/01/24 17:17:36;;;;;;;2.83;1.93;;;3.60;99.90;5.70;103529.00;;;;5039343;28;20186;-68
2023/01/24 17:20:40;;;;;;;2.47;2.30;;;3.60;99.90;5.30;103547.00;;;;5042283;28;20182;-68
2023/01/24 17:23:38;;;;;;;4.70;4.20;;;3.70;99.90;5.50;103541.00;;;;5068331;28;20261;-68
2023/01/24 17:30:37;;;;;;;0.47;0.47;;;3.50;99.90;5.10;103545.00;;;;5061587;28;20628;-67
2023/01/24 17:33:40;;;;;;;0.97;0.97;;;3.20;99.90;6.00;103549.00;;;;5063943;28;20228;-67
2023/01/24 17:36:45;;;;;;;1.43;1.43;;;3.50;99.90;5.00;103562.00;;;;5029836;28;20190;-68
2023/01/24 17:40:04;;;;;;;5.50;4.17;;;3.60;99.90;4.40;103533.00;;;;5030948;28;20181;-67
2023/01/24 17:43:07;;;;;;;11.33;7.47;;;3.00;99.90;4.70;103549.00;;;;5058492;28;20192;-67
2023/01/24 17:46:18;;;;;;;5.63;5.10;;;3.20;99.90;5.40;103518.00;;;;5031942;28;20240;-67
2023/01/24 17:48:47;;;;;;;4.10;2.37;;;3.30;99.90;5.50;103556.00;;;;5062857;28;20213;-68
2023/01/24 17:51:28;;;;;;;1.73;1.43;;;3.60;99.90;5.60;103546.00;;;;5070816;28;20258;-67
2023/01/24 17:53:58;;;;;;;0.40;0.40;;;3.40;99.90;6.40;103560.00;;;;5066862;28;20624;-67
2023/01/24 17:56:24;;;;;;;6.60;2.93;;;3.70;99.90;5.30;103556.00;;;;5052213;28;20222;-67
2023/01/24 17:58:54;;;;;;;4.67;4.23;;;3.70;99.90;4.90;103544.00;;;;5058895;28;20192;-68
2023/01/24 18:01:32;;;;;;;5.77;4.80;;;3.50;99.90;5.10;103542.00;;;;5060435;28;20207;-67
2023/01/24 18:04:00;;;;;;;4.23;2.57;;;3.30;99.90;5.40;103544.00;;;;5059859;28;20189;-68
2023/01/24 18:06:51;;;;;;;12.70;7.57;;;3.30;99.90;5.20;103547.00;;;;5066407;28;20194;-70
2023/01/24 18:09:20;;;;;;;4.97;4.50;;;3.40;99.90;5.50;103547.00;;;;5066706;28;20196;-68
2023/01/24 18:11:46;;;;;;;0.20;0.20;;;3.40;99.90;5.30;103551.00;;;;5046155;28;20252;-68
2023/01/24 18:14:24;;;;;;;1.47;1.43;;;3.30;99.90;5.30;103553.00;;;;5022560;28;20649;-68
2023/01/24 18:16:58;;;;;;;1.83;1.73;;;3.20;99.90;5.10;103556.00;;;;5062436;28;20643;-68
2023/01/24 18:19:26;;;;;;;11.57;7.27;;;3.30;99.90;5.30;103562.00;;;;5026543;28;20178;-68
2023/01/24 18:22:26;;;;;;;1.90;1.80;;;3.40;99.90;5.90;103527.00;;;;5040200;28;20186;-68
2023/01/24 18:24:55;;;;;;;4.33;2.73;;;3.50;99.90;6.20;103562.00;;;;5044417;28;20186;-68
2023/01/24 18:27:33;;;;;;;1.10;1.10;;;3.80;99.90;6.00;103571.00;;;;5061246;28;20196;-68
2023/01/24 18:30:14;;;;;;;1.23;1.23;;;3.80;99.90;6.20;103564.00;;;;5047194;28;20190;-68
2023/01/24 18:32:46;;;;;;;1.23;0.77;;;3.70;99.90;6.20;103509.00;;;;5043273;28;20296;-67
2023/01/24 18:35:26;;;;;;;2.27;2.10;;;3.80;99.90;6.30;103552.00;;;;5046278;28;20187;-68
2023/01/24 18:37:52;;;;;;;4.60;3.03;;;3.80;99.90;4.80;103506.00;;;;5061115;28;20271;-68
2023/01/24 18:40:23;;;;;;;3.87;1.33;;;3.60;99.90;5.80;103541.00;;;;5039417;28;20810;-69
2023/01/24 18:42:54;;;;;;;4.40;4.10;;;3.50;99.90;6.30;103558.00;;;;5049596;28;20273;-68
2023/01/24 18:45:23;;;;;;;4.60;2.80;;;3.90;99.90;5.90;103544.00;;;;5026037;28;20184;-67
2023/01/24 18:47:54;;;;;;;4.20;3.90;;;3.90;99.90;5.60;103539.00;;;;5035214;28;20191;-68
2023/01/24 18:50:22;;;;;;;2.53;1.07;;;3.60;99.90;5.00;103523.00;;;;5030424;28;20590;-67
2023/01/24 18:53:03;;;;;;;3.60;3.40;;;3.40;99.90;6.00;103530.00;;;;5060146;28;20191;-67
2023/01/24 18:55:34;;;;;;;0.87;0.87;;;3.50;99.90;6.10;103553.00;;;;5070100;28;20275;-67
2023/01/24 18:58:05;;;;;;;2.10;2.00;;;3.70;99.90;5.90;103549.00;;;;5065538;28;20177;-67
2023/01/24 19:00:36;;;;;;;7.43;2.97;;;3.80;99.90;5.50;103552.00;;;;5053828;28;20665;-68
2023/01/24 19:03:02;;;;;;;1.00;1.00;;;3.80;99.90;6.10;103549.00;;;;5050756;28;20198;-68
2023/01/24 19:05:38;;;;;;;1.83;1.73;;;3.60;99.90;6.50;103565.00;;;;5043585;28;20186;-68
2023/01/24 19:08:09;;;;;;;15.30;5.27;;;3.90;99.90;5.30;103554.00;;;;5036198;28;20185;-68
2023/01/24 19:10:35;;;;;;;2.00;1.47;;;3.60;99.90;4.90;103539.00;;;;5061299;28;20178;-68
2023/01/24 19:13:03;;;;;;;1.07;1.07;;;3.50;99.90;5.60;103539.00;;;;5065655;28;20327;-67
2023/01/24 19:15:34;;;;;;;5.40;4.70;;;3.30;99.90;5.10;103498.00;;;;5056073;28;20192;-68
2023/01/24 19:18:04;;;;;;;4.50;3.37;;;3.30;99.90;5.30;103528.00;;;;5038865;28;20260;-68
2023/01/24 19:20:37;;;;;;;2.63;2.43;;;3.50;99.90;5.50;103539.00;;;;5068765;28;20185;-68
2023/01/24 19:23:12;;;;;;;0.93;0.93;;;3.40;99.90;6.00;103545.00;;;;5058781;28;20537;-68
2023/01/24 19:25:43;;;;;;;1.17;1.17;;;3.40;99.90;5.80;103549.00;;;;5066237;28;20177;-68
2023/01/24 19:28:11;;;;;;;0.50;0.50;;;3.50;99.90;6.70;103561.00;;;;5033031;28;20220;-68
2023/01/24 19:30:37;;;;;;;6.00;3.17;;;3.80;99.90;6.30;103567.00;;;;5069268;28;20601;-68
2023/01/24 19:33:11;;;;;;;3.43;3.17;;;4.10;99.90;5.50;103538.00;;;;5069176;28;20221;-68
2023/01/24 19:35:43;;;;;;;6.27;4.63;;;3.60;99.90;4.30;103508.00;;;;5043008;28;20183;-68
2023/01/24 19:38:12;;;;;;;3.03;1.73;;;3.30;99.90;5.40;103531.00;;;;5048716;28;20584;-68
2023/01/24 19:40:38;;;;;;;4.50;4.30;;;3.20;99.90;5.50;103541.00;;;;5052901;28;20190;-68
2023/01/24 19:43:07;;;;;;;1.27;1.27;;;3.30;99.90;6.40;103564.00;;;;5039077;28;20263;-68
2023/01/24 19:45:43;;;;;;;0.70;0.60;;;3.60;99.90;6.40;103548.00;;;;5055938;28;20214;-68
2023/01/24 19:48:18;;;;;;;0.93;0.93;;;3.70;99.90;7.00;103563.00;;;;5047247;28;20193;-66
2023/01/24 19:50:49;;;;;;;3.77;3.57;;;4.00;99.90;5.10;103541.00;;;;5041932;28;20226;-67
2023/01/24 19:53:23;;;;;;;2.50;2.40;;;3.90;99.90;5.20;103541.00;;;;5057993;28;20394;-67
2023/01/24 19:56:01;;;;;;;0.30;0.30;;;3.50;99.90;5.60;103560.00;;;;5048835;28;20720;-67
2023/01/24 19:58:37;;;;;;;0.30;0.30;;;3.40;99.90;6.30;103563.00;;;;5066674;28;20193;-68
2023/01/24 20:01:15;;;;;;;0.30;0.30;;;3.60;99.90;6.10;103563.00;;;;5056280;28;20184;-67